Goshen, Virginia
Current Conditions -  °F | °C
As of 4:35 PM on Friday 28 Nov 2014 (Local Time) from KHSP Reporting Station
Scattered Clouds Scattered Clouds  
Wind Chill: 13°   Ceiling: Unl
Heat Index: 22°   Visibility: 10mi
Dew Point: 13°   Wind: 8mph
Humidity: 68%   Direction: 270°W
Pressure: 30.09"   Gusts: NA
Location:  37.99°N, 79.5°W
Report Text: KHSP 282135Z AUTO 27007KT 10SM SCT060 M06/M11 A3009 RMK AO2 T10561107
Loading
Personal Weather Stations






























Interactive Weather Map New forecast layout! Learn more

10-Day Weather Forecast

Advertisements
Track Severe Weather on mobile